createdAt,value
2022-08-23T00:01:39.268Z,10.82
2022-08-23T00:04:13.766Z,13.63
2022-08-23T00:06:46.160Z,8.48
2022-08-23T00:09:17.804Z,12.23
2022-08-23T00:11:48.188Z,9.45
2022-08-23T00:14:19.297Z,12.25
2022-08-23T00:16:50.999Z,12.75
2022-08-23T00:19:21.869Z,12.88
2022-08-23T00:21:53.669Z,11.55
2022-08-23T00:24:22.709Z,15.80
2022-08-23T00:26:57.256Z,22.25
2022-08-23T00:29:27.656Z,29.83
2022-08-23T00:31:58.665Z,26.75
2022-08-23T00:34:27.300Z,30.17
2022-08-23T00:36:57.680Z,24.92
2022-08-23T00:39:26.474Z,22.83
2022-08-23T00:42:00.966Z,17.92
2022-08-23T00:44:51.237Z,13.73
2022-08-23T00:47:37.703Z,13.25
2022-08-23T00:50:23.715Z,10.80
2022-08-23T00:53:02.560Z,19.10
2022-08-23T00:55:31.804Z,21.10
2022-08-23T00:58:02.531Z,20.75
2022-08-23T01:00:32.362Z,25.92
2022-08-23T01:03:02.262Z,27.52
2022-08-23T01:05:39.020Z,24.30
2022-08-23T01:08:08.635Z,25.92
2022-08-23T01:10:42.086Z,23.45
2022-08-23T01:13:15.440Z,22.95
2022-08-23T01:15:47.300Z,23.65
2022-08-23T01:18:18.959Z,21.45
2022-08-23T01:20:54.839Z,21.95
2022-08-23T01:23:31.319Z,21.05
2022-08-23T01:26:02.808Z,19.05
2022-08-23T01:28:30.975Z,16.52
2022-08-23T01:30:59.524Z,16.42
2022-08-23T01:33:27.837Z,15.65
2022-08-23T01:35:58.561Z,23.13
2022-08-23T01:38:30.420Z,24.75
2022-08-23T01:41:01.197Z,29.10
2022-08-23T01:43:29.470Z,22.90
2022-08-23T01:45:57.983Z,19.90
2022-08-23T01:48:26.971Z,17.52
2022-08-23T01:50:55.224Z,25.17
2022-08-23T01:53:23.503Z,23.38
2022-08-23T01:55:53.277Z,16.42
2022-08-23T01:58:21.495Z,23.58
2022-08-23T02:00:50.189Z,29.88
2022-08-23T02:03:18.619Z,25.00
2022-08-23T02:05:46.782Z,26.00
2022-08-23T02:08:32.835Z,27.20
2022-08-23T02:11:08.623Z,24.60
2022-08-23T02:13:37.029Z,30.30
2022-08-23T02:16:05.657Z,18.60
2022-08-23T02:18:36.367Z,14.52
2022-08-23T02:21:04.828Z,19.58
2022-08-23T02:23:34.982Z,19.30
2022-08-23T02:26:07.013Z,18.20
2022-08-23T02:28:35.320Z,16.45
2022-08-23T02:31:03.512Z,15.75
2022-08-23T02:33:33.305Z,12.68
2022-08-23T02:36:01.726Z,15.90
2022-08-23T02:38:30.169Z,13.73
2022-08-23T02:41:00.790Z,14.45
2022-08-23T02:43:31.141Z,12.10
2022-08-23T02:45:59.652Z,13.07
2022-08-23T02:48:27.839Z,15.57
2022-08-23T02:51:00.320Z,13.38
2022-08-23T02:53:28.423Z,14.45
2022-08-23T02:55:57.076Z,14.32
2022-08-23T02:58:26.428Z,13.90
2022-08-23T03:00:56.253Z,15.65
2022-08-23T03:03:24.935Z,18.45
2022-08-23T03:05:53.837Z,16.92
2022-08-23T03:08:23.058Z,15.07
2022-08-23T03:10:54.532Z,13.27
2022-08-23T03:13:22.976Z,14.25
2022-08-23T03:15:51.221Z,17.08
2022-08-23T03:18:24.919Z,15.85
2022-08-23T03:20:53.410Z,13.65
2022-08-23T03:23:21.628Z,19.55
2022-08-23T03:25:49.740Z,19.10
2022-08-23T03:28:17.758Z,18.08
2022-08-23T03:30:45.859Z,18.25
2022-08-23T03:33:14.144Z,18.33
2022-08-23T03:35:43.765Z,18.17
2022-08-23T03:38:13.287Z,17.42
2022-08-23T03:40:41.579Z,17.58
2022-08-23T03:43:09.765Z,25.88
2022-08-23T03:45:39.238Z,24.15
2022-08-23T03:48:10.828Z,21.67
2022-08-23T03:50:41.723Z,25.98
2022-08-23T03:53:13.190Z,25.52
2022-08-23T03:55:42.616Z,25.70
2022-08-23T03:58:11.701Z,27.38
2022-08-23T04:00:40.546Z,32.70
2022-08-23T04:03:11.066Z,33.47
2022-08-23T04:05:39.220Z,31.00
2022-08-23T04:08:14.057Z,34.08
2022-08-23T04:10:49.382Z,31.95
2022-08-23T04:13:17.445Z,31.75
2022-08-23T04:15:46.499Z,36.67
2022-08-23T04:18:15.314Z,39.22
2022-08-23T04:20:43.973Z,36.45
2022-08-23T04:23:16.194Z,34.97
2022-08-23T04:25:46.517Z,29.80
2022-08-23T04:28:14.767Z,28.73
2022-08-23T04:30:43.412Z,27.00
2022-08-23T04:33:18.055Z,25.02
2022-08-23T04:35:46.557Z,24.73
2022-08-23T04:38:24.608Z,25.95
2022-08-23T04:41:11.735Z,31.83
2022-08-23T04:43:40.212Z,28.92
2022-08-23T04:46:08.402Z,27.55
2022-08-23T04:48:36.782Z,27.60
2022-08-23T04:51:05.896Z,26.77
2022-08-23T04:53:36.113Z,26.75
2022-08-23T04:56:12.309Z,26.50
2022-08-23T04:58:46.304Z,31.92
2022-08-23T05:01:16.218Z,31.05
2022-08-23T05:03:44.415Z,32.05
2022-08-23T05:06:12.977Z,29.98
2022-08-23T05:08:42.350Z,28.80
2022-08-23T05:11:11.565Z,29.48
2022-08-23T05:13:41.899Z,28.67
2022-08-23T05:16:10.531Z,27.45
2022-08-23T05:18:38.957Z,22.83
2022-08-23T05:21:08.359Z,28.75
2022-08-23T05:23:36.555Z,25.48
2022-08-23T05:26:08.192Z,24.15
2022-08-23T05:28:39.920Z,24.52
2022-08-23T05:31:11.795Z,28.45
2022-08-23T05:33:40.592Z,28.50
2022-08-23T05:36:09.955Z,27.60
2022-08-23T05:38:38.660Z,30.30
2022-08-23T05:41:08.292Z,28.13
2022-08-23T05:43:36.881Z,31.40
2022-08-23T05:46:07.099Z,31.63
2022-08-23T05:48:44.378Z,32.88
2022-08-23T05:51:14.881Z,32.40
2022-08-23T05:53:43.908Z,32.80
2022-08-23T05:56:16.348Z,28.17
2022-08-23T05:58:45.395Z,23.55
2022-08-23T06:01:14.608Z,22.45
2022-08-23T06:03:48.716Z,21.88
2022-08-23T06:06:17.710Z,19.48
2022-08-23T06:08:47.626Z,19.55
2022-08-23T06:11:25.523Z,21.85
2022-08-23T06:13:56.595Z,21.92
2022-08-23T06:16:27.065Z,25.27
2022-08-23T06:19:02.610Z,25.45
2022-08-23T06:21:31.812Z,24.30
2022-08-23T06:24:01.489Z,23.23
2022-08-23T06:26:33.403Z,26.63
2022-08-23T06:29:07.528Z,27.13
2022-08-23T06:31:48.768Z,22.88
2022-08-23T06:34:20.303Z,29.30
2022-08-23T06:36:51.273Z,29.90
2022-08-23T06:39:21.540Z,27.38
2022-08-23T06:41:51.680Z,26.42
2022-08-23T06:44:21.263Z,26.25
2022-08-23T06:46:49.416Z,25.20
2022-08-23T06:49:20.111Z,27.85
2022-08-23T06:51:51.293Z,25.70
2022-08-23T06:54:23.336Z,25.35
2022-08-23T06:56:57.961Z,24.63
2022-08-23T06:59:28.906Z,28.73
2022-08-23T07:02:00.016Z,22.27
2022-08-23T07:04:35.403Z,20.52
2022-08-23T07:07:11.799Z,19.60
2022-08-23T07:09:46.409Z,18.75
2022-08-23T07:12:17.019Z,18.48
2022-08-23T07:14:48.092Z,17.23
2022-08-23T07:17:19.872Z,13.30
2022-08-23T07:19:48.908Z,13.25
2022-08-23T07:22:23.331Z,13.32
2022-08-23T07:24:54.551Z,12.98
2022-08-23T07:27:24.491Z,14.15
2022-08-23T07:29:53.681Z,14.30
2022-08-23T07:32:21.950Z,13.75
2022-08-23T07:34:52.778Z,13.13
2022-08-23T07:37:37.895Z,12.57
2022-08-23T07:40:08.328Z,14.80
2022-08-23T07:42:38.005Z,13.35
2022-08-23T07:45:16.866Z,9.75
2022-08-23T07:47:54.804Z,10.43
2022-08-23T07:50:24.707Z,17.33
2022-08-23T07:52:58.679Z,9.20
2022-08-23T07:55:33.130Z,9.23
2022-08-23T07:58:07.106Z,8.18
2022-08-23T08:00:46.857Z,9.13
2022-08-23T08:03:32.809Z,8.30
2022-08-23T08:06:18.165Z,10.55
2022-08-23T08:08:48.451Z,10.43
2022-08-23T08:11:40.727Z,9.23
2022-08-23T08:14:19.038Z,14.13
2022-08-23T08:16:54.242Z,10.55
2022-08-23T08:19:24.423Z,13.18
2022-08-23T08:22:03.386Z,11.00
2022-08-23T08:24:31.540Z,8.95
2022-08-23T08:27:03.478Z,12.00
2022-08-23T08:29:36.120Z,8.57
2022-08-23T08:32:06.644Z,25.95
2022-08-23T08:34:40.748Z,12.00
2022-08-23T08:37:18.977Z,11.15
2022-08-23T08:39:49.082Z,8.80
2022-08-23T08:42:47.885Z,6.53
2022-08-23T08:45:25.254Z,6.78
2022-08-23T08:48:13.548Z,11.10
2022-08-23T08:50:47.204Z,11.95
2022-08-23T08:53:20.150Z,16.52
2022-08-23T08:55:52.967Z,11.85
2022-08-23T08:58:27.270Z,7.10
2022-08-23T09:00:59.436Z,7.47
2022-08-23T09:03:33.986Z,6.30
2022-08-23T09:06:11.450Z,7.50
2022-08-23T09:08:54.768Z,6.70
2022-08-23T09:11:56.745Z,7.82
2022-08-23T09:14:48.493Z,7.13
2022-08-23T09:17:49.422Z,7.90
2022-08-23T09:24:24.577Z,13.25
2022-08-23T09:27:19.544Z,13.38
2022-08-23T09:30:34.879Z,11.45
2022-08-23T09:37:19.249Z,7.07
2022-08-23T09:39:53.526Z,5.93
2022-08-23T09:47:44.407Z,4.82
2022-08-23T09:50:16.352Z,6.15
2022-08-23T09:52:49.908Z,8.20
2022-08-23T09:59:03.468Z,6.78
2022-08-23T10:01:39.525Z,4.93
2022-08-23T10:04:15.210Z,8.02
2022-08-23T10:07:07.987Z,6.63
2022-08-23T10:09:40.153Z,7.65
2022-08-23T10:12:11.634Z,9.23
2022-08-23T10:14:50.125Z,9.82
2022-08-23T10:17:39.265Z,6.30
2022-08-23T10:20:22.342Z,8.43
2022-08-23T10:22:59.341Z,10.10
2022-08-23T10:29:21.942Z,8.18
2022-08-23T10:34:19.294Z,9.23
2022-08-23T10:35:40.276Z,5.97
2022-08-23T10:39:03.460Z,7.53
2022-08-23T10:42:08.413Z,6.30
2022-08-23T10:48:32.089Z,6.72
2022-08-23T10:51:40.424Z,9.73
2022-08-23T11:05:32.728Z,5.57
2022-08-23T11:08:48.060Z,6.15
2022-08-23T11:12:53.332Z,7.20
2022-08-23T11:19:31.752Z,10.55
2022-08-23T11:40:52.189Z,6.07
2022-08-23T11:47:06.796Z,11.20
2022-08-23T11:50:43.090Z,10.32
2022-08-23T11:54:22.575Z,11.48
2022-08-23T11:57:17.132Z,7.65
2022-08-23T12:00:34.987Z,6.20
2022-08-23T12:03:13.936Z,7.60
2022-08-23T12:06:12.584Z,9.52
2022-08-23T12:09:11.930Z,8.68
2022-08-23T12:12:21.630Z,8.75
2022-08-23T12:14:55.056Z,11.27
2022-08-23T12:18:14.796Z,11.60
2022-08-23T12:20:48.652Z,10.70
2022-08-23T12:23:21.989Z,14.30
2022-08-23T12:26:00.786Z,11.73
2022-08-23T12:28:39.320Z,12.60
2022-08-23T12:31:18.790Z,8.82
2022-08-23T12:34:01.726Z,12.82
2022-08-23T12:36:41.119Z,8.95
2022-08-23T12:39:20.740Z,11.18
2022-08-23T12:41:56.793Z,8.07
2022-08-23T12:44:28.013Z,9.60
2022-08-23T12:46:56.872Z,10.95
2022-08-23T12:49:28.218Z,10.70
2022-08-23T12:52:00.160Z,11.57
2022-08-23T12:54:36.864Z,8.77
2022-08-23T12:57:11.922Z,10.75
2022-08-23T12:59:45.679Z,12.10
2022-08-23T13:02:24.955Z,7.88
2022-08-23T13:04:53.661Z,12.45
2022-08-23T13:07:26.551Z,15.80
2022-08-23T13:09:55.676Z,14.35
2022-08-23T13:12:24.613Z,12.95
2022-08-23T13:14:55.203Z,9.07
2022-08-23T13:17:32.831Z,10.63
2022-08-23T13:20:23.824Z,21.15
2022-08-23T13:23:10.918Z,13.23
2022-08-23T13:25:41.458Z,12.30
2022-08-23T13:28:23.352Z,12.60
2022-08-23T13:31:00.557Z,16.58
2022-08-23T13:33:28.627Z,16.70
2022-08-23T13:36:13.224Z,12.18
2022-08-23T13:38:44.331Z,9.68
2022-08-23T13:41:27.557Z,14.38
2022-08-23T13:43:56.027Z,9.88
2022-08-23T13:46:26.582Z,11.95
2022-08-23T13:48:59.489Z,9.80
2022-08-23T13:51:32.623Z,8.38
2022-08-23T13:54:05.575Z,9.02
2022-08-23T13:56:38.895Z,10.70
2022-08-23T13:59:20.773Z,12.57
2022-08-23T14:01:48.824Z,14.52
2022-08-23T14:04:17.092Z,9.43
2022-08-23T14:06:48.935Z,13.50
2022-08-23T14:09:18.635Z,10.38
2022-08-23T14:11:48.898Z,11.27
2022-08-23T14:14:16.925Z,10.20
2022-08-23T14:16:45.097Z,11.10
2022-08-23T14:19:16.426Z,12.77
2022-08-23T14:21:46.807Z,11.20
2022-08-23T14:24:15.048Z,14.85
2022-08-23T14:26:51.739Z,12.52
2022-08-23T14:29:22.241Z,14.57
2022-08-23T14:31:51.152Z,11.48
2022-08-23T14:34:19.541Z,17.40
2022-08-23T14:39:35.529Z,12.38
2022-08-23T14:42:06.025Z,10.10
2022-08-23T14:44:35.986Z,9.80
2022-08-23T14:47:05.452Z,8.65
2022-08-23T14:49:34.458Z,11.23
2022-08-23T14:52:02.946Z,11.88
2022-08-23T14:54:31.405Z,13.63
2022-08-23T14:57:00.340Z,13.23
2022-08-23T14:59:29.991Z,15.48
2022-08-23T15:01:58.528Z,11.77
2022-08-23T15:04:34.394Z,10.70
2022-08-23T15:07:19.255Z,9.30
2022-08-23T15:09:48.172Z,8.55
2022-08-23T15:15:08.368Z,11.27
2022-08-23T15:17:38.940Z,8.23
2022-08-23T15:20:07.787Z,10.43
2022-08-23T15:22:42.960Z,8.90
2022-08-23T15:25:13.217Z,12.25
2022-08-23T15:27:41.313Z,10.82
2022-08-23T15:30:12.607Z,13.18
2022-08-23T15:32:40.755Z,11.73
2022-08-23T15:35:20.726Z,8.88
2022-08-23T15:37:49.741Z,12.65
2022-08-23T15:40:18.091Z,8.50
2022-08-23T15:42:46.093Z,11.15
2022-08-23T15:45:15.924Z,10.27
2022-08-23T15:47:49.038Z,11.13
2022-08-23T15:50:19.372Z,7.85
2022-08-23T15:52:47.669Z,10.65
2022-08-23T15:55:16.371Z,9.80
2022-08-23T15:57:47.155Z,8.30
2022-08-23T16:00:19.782Z,7.80
2022-08-23T16:03:19.212Z,8.57
2022-08-23T16:05:37.822Z,11.75
2022-08-23T16:08:08.324Z,9.43
2022-08-23T16:10:36.408Z,10.38
2022-08-23T16:13:04.522Z,8.70
2022-08-23T16:15:33.988Z,7.85
2022-08-23T16:18:02.041Z,12.48
2022-08-23T16:20:30.021Z,5.18
2022-08-23T16:22:58.071Z,5.97
2022-08-23T16:25:26.030Z,7.68
2022-08-23T16:27:54.324Z,8.88
2022-08-23T16:30:22.596Z,6.50
2022-08-23T16:32:52.104Z,5.18
2022-08-23T16:35:20.245Z,5.50
2022-08-23T16:37:48.302Z,7.90
2022-08-23T16:40:18.109Z,6.65
2022-08-23T16:42:46.130Z,8.30
2022-08-23T16:45:14.206Z,6.35
2022-08-23T16:47:45.019Z,7.43
2022-08-23T16:50:16.769Z,7.85
2022-08-23T16:52:44.760Z,8.00
2022-08-23T16:55:14.395Z,7.13
2022-08-23T16:57:42.452Z,7.68
2022-08-23T17:00:13.589Z,5.25
2022-08-23T17:02:42.213Z,4.82
2022-08-23T17:05:13.661Z,6.28
2022-08-23T17:07:43.192Z,5.05
2022-08-23T17:10:14.942Z,5.35
2022-08-23T17:12:47.222Z,4.93
2022-08-23T17:15:18.977Z,4.63
2022-08-23T17:17:48.347Z,5.72
2022-08-23T17:20:18.516Z,5.47
2022-08-23T17:22:48.117Z,5.90
2022-08-23T17:25:17.072Z,5.35
2022-08-23T17:27:46.708Z,5.68
2022-08-23T17:30:17.567Z,7.43
2022-08-23T17:32:47.719Z,4.13
2022-08-23T17:35:22.233Z,4.47
2022-08-23T17:37:52.837Z,5.03
2022-08-23T17:40:30.331Z,4.05
2022-08-23T17:43:00.616Z,6.30
2022-08-23T17:45:29.905Z,6.28
2022-08-23T17:47:58.636Z,5.72
2022-08-23T17:50:27.161Z,5.18
2022-08-23T17:52:57.250Z,7.00
2022-08-23T17:55:25.431Z,7.38
2022-08-23T17:58:02.306Z,5.88
2022-08-23T18:00:33.362Z,6.78
2022-08-23T18:03:01.786Z,7.78
2022-08-23T18:05:33.293Z,7.85
2022-08-23T18:08:04.159Z,4.95
2022-08-23T18:10:35.469Z,4.78
2022-08-23T18:13:03.904Z,6.47
2022-08-23T18:15:49.273Z,7.82
2022-08-23T18:18:23.960Z,6.75
2022-08-23T18:20:54.799Z,6.10
2022-08-23T18:23:24.524Z,7.50
2022-08-23T18:25:53.409Z,5.95
2022-08-23T18:28:22.390Z,6.30
2022-08-23T18:31:20.407Z,12.65
2022-08-23T18:33:48.894Z,7.05
2022-08-23T18:36:18.817Z,7.22
2022-08-23T18:38:48.763Z,6.28
2022-08-23T18:41:17.106Z,7.15
2022-08-23T18:43:45.670Z,8.43
2022-08-23T18:46:14.093Z,9.40
2022-08-23T18:48:42.706Z,9.63
2022-08-23T18:51:20.156Z,9.73
2022-08-23T18:53:49.955Z,8.80
2022-08-23T18:56:20.700Z,8.90
2022-08-23T18:58:49.053Z,7.13
2022-08-23T19:01:25.540Z,5.45
2022-08-23T19:03:54.936Z,7.63
2022-08-23T19:06:23.553Z,4.43
2022-08-23T19:08:53.377Z,3.75
2022-08-23T19:11:23.213Z,5.60
2022-08-23T19:13:51.911Z,4.47
2022-08-23T19:16:22.306Z,5.65
2022-08-23T19:18:51.673Z,2.60
2022-08-23T19:21:22.360Z,4.05
2022-08-23T19:23:53.658Z,4.15
2022-08-23T19:26:25.748Z,5.07
2022-08-23T19:28:54.392Z,7.55
2022-08-23T19:31:23.773Z,6.55
2022-08-23T19:33:54.244Z,5.13
2022-08-23T19:36:44.718Z,4.30
2022-08-23T19:39:13.085Z,3.78
2022-08-23T19:41:41.915Z,3.20
2022-08-23T19:44:10.961Z,3.70
2022-08-23T19:46:42.110Z,2.92
2022-08-23T19:49:12.147Z,4.38
2022-08-23T19:51:40.609Z,3.15
2022-08-23T19:54:11.432Z,3.58
2022-08-23T19:56:44.766Z,3.13
2022-08-23T19:59:17.921Z,5.80
2022-08-23T20:01:46.134Z,6.45
2022-08-23T20:04:14.351Z,3.55
2022-08-23T20:06:42.412Z,4.43
2022-08-23T20:09:11.689Z,4.32
2022-08-23T20:11:41.137Z,3.08
2022-08-23T20:14:10.481Z,4.88
2022-08-23T20:16:41.005Z,4.07
2022-08-23T20:19:09.836Z,3.67
2022-08-23T20:21:38.218Z,6.53
2022-08-23T20:24:06.011Z,6.07
2022-08-23T20:26:40.524Z,9.57
2022-08-23T20:29:12.165Z,10.98
2022-08-23T20:31:48.152Z,14.32
2022-08-23T20:34:16.445Z,18.20
2022-08-23T20:36:44.784Z,17.40
2022-08-23T20:39:13.002Z,24.23
2022-08-23T20:41:42.522Z,25.27
2022-08-23T20:44:12.298Z,22.55
2022-08-23T20:46:40.383Z,23.38
2022-08-23T20:49:08.988Z,25.52
2022-08-23T20:51:37.145Z,25.27
2022-08-23T20:54:05.525Z,21.83
2022-08-23T20:56:34.145Z,20.80
2022-08-23T20:59:02.428Z,20.70
2022-08-23T21:01:32.204Z,19.05
2022-08-23T21:04:01.061Z,17.90
2022-08-23T21:06:31.119Z,19.77
2022-08-23T21:09:01.354Z,18.35
2022-08-23T21:11:30.047Z,21.38
2022-08-23T21:13:58.932Z,18.67
2022-08-23T21:16:27.640Z,19.55
2022-08-23T21:18:57.333Z,25.50
2022-08-23T21:21:25.546Z,21.17
2022-08-23T21:23:54.790Z,21.05
2022-08-23T21:26:23.464Z,18.98
2022-08-23T21:28:51.985Z,21.95
2022-08-23T21:31:22.519Z,21.75
2022-08-23T21:33:50.850Z,26.75
2022-08-23T21:36:22.016Z,26.65
2022-08-23T21:38:50.369Z,25.42
2022-08-23T21:41:32.274Z,26.63
2022-08-23T21:44:00.930Z,27.75
2022-08-23T21:46:31.853Z,25.35
2022-08-23T21:49:00.278Z,27.20
2022-08-23T21:51:30.625Z,27.35
2022-08-23T21:53:59.609Z,29.02
2022-08-23T21:56:28.360Z,29.58
2022-08-23T21:58:59.692Z,29.55
2022-08-23T22:01:27.765Z,27.95
2022-08-23T22:03:57.110Z,27.15
2022-08-23T22:06:25.795Z,24.27
2022-08-23T22:08:55.788Z,24.90
2022-08-23T22:11:27.110Z,26.88
2022-08-23T22:13:55.741Z,25.13
2022-08-23T22:16:24.402Z,25.20
2022-08-23T22:18:52.519Z,24.45
2022-08-23T22:21:20.825Z,28.50
2022-08-23T22:23:48.835Z,29.05
2022-08-23T22:26:18.283Z,28.10
2022-08-23T22:28:46.354Z,27.63
2022-08-23T22:31:16.136Z,27.83
2022-08-23T22:33:45.147Z,25.17
2022-08-23T22:36:16.533Z,27.10
2022-08-23T22:38:45.545Z,27.30
2022-08-23T22:41:19.112Z,25.30
2022-08-23T22:43:47.273Z,24.50
2022-08-23T22:46:15.347Z,25.92
2022-08-23T22:48:43.666Z,26.95
2022-08-23T22:51:14.846Z,23.60
2022-08-23T22:53:45.471Z,26.52
2022-08-23T22:56:15.161Z,23.98
2022-08-23T22:58:45.637Z,21.63
2022-08-23T23:01:20.116Z,24.48
2022-08-23T23:03:49.642Z,23.00
2022-08-23T23:06:20.411Z,23.48
2022-08-23T23:08:48.738Z,23.33
2022-08-23T23:11:18.448Z,23.90
2022-08-23T23:13:48.482Z,22.13
2022-08-23T23:16:20.519Z,21.60
2022-08-23T23:19:09.100Z,21.58
2022-08-23T23:21:39.375Z,21.25
2022-08-23T23:24:07.986Z,20.45
2022-08-23T23:26:38.785Z,21.88
2022-08-23T23:29:08.974Z,21.40
2022-08-23T23:31:37.927Z,22.88
2022-08-23T23:34:06.248Z,21.60
2022-08-23T23:36:34.476Z,21.92
2022-08-23T23:39:04.327Z,23.98
2022-08-23T23:41:32.471Z,23.67
2022-08-23T23:44:01.159Z,24.17
2022-08-23T23:46:30.614Z,24.23
2022-08-23T23:48:58.595Z,26.45
2022-08-23T23:51:29.456Z,23.30
2022-08-23T23:53:59.031Z,24.70
2022-08-23T23:56:30.120Z,25.27
2022-08-23T23:58:58.920Z,23.63
